Collaborative Groups
DoD Center for Geosciences/Atmospheric Research
National Park Service
Regional and Mesoscale Meteorology Branch
| Date Time MST |
Temp °F |
RH % |
DewPt °F |
Wind mph |
Dir ° |
Gust mph |
Dir ° |
Press in Hg |
Solar W/m^2 |
Prec in |
|---|---|---|---|---|---|---|---|---|---|---|
| 2026-05-03 13:50 | 72.2 | 12.3 | 17.4 | 8.2 | 40 | 12.7 | 42 | 24.759 | 320.9 | 0.00 |
| 2026-05-03 13:45 | 72.8 | 12.0 | 17.3 | 5.4 | 39 | 10.8 | 46 | 24.760 | 361.7 | 0.00 |
| 2026-05-03 13:40 | 72.1 | 11.8 | 16.3 | 6.7 | 194 | 13.2 | 262 | 24.763 | 415.6 | 0.00 |
| 2026-05-03 13:35 | 72.8 | 11.5 | 16.2 | 10.9 | 252 | 19.2 | 244 | 24.768 | 422.0 | 0.00 |
| 2026-05-03 13:30 | 73.2 | 11.6 | 16.8 | 11.6 | 262 | 16.5 | 268 | 24.768 | 481.4 | 0.00 |
| 2026-05-03 13:25 | 72.4 | 12.1 | 17.0 | 11.0 | 251 | 14.9 | 239 | 24.768 | 462.3 | 0.00 |
| 2026-05-03 13:20 | 72.2 | 11.7 | 16.1 | 12.6 | 235 | 17.9 | 249 | 24.769 | 449.2 | 0.00 |
| 2026-05-03 13:15 | 72.0 | 11.6 | 15.8 | 9.8 | 229 | 15.3 | 277 | 24.772 | 418.5 | 0.00 |
| 2026-05-03 13:10 | 72.2 | 11.2 | 15.2 | 9.3 | 257 | 12.8 | 276 | 24.774 | 395.9 | 0.00 |
| 2026-05-03 13:05 | 72.1 | 11.8 | 16.4 | 9.6 | 266 | 15.5 | 234 | 24.776 | 426.2 | 0.00 |
| 2026-05-03 13:00 | 71.8 | 11.2 | 15.0 | 8.7 | 226 | 13.4 | 240 | 24.777 | 408.7 | 0.00 |
| 2026-05-03 12:55 | 71.7 | 11.4 | 15.2 | 13.6 | 272 | 21.4 | 260 | 24.777 | 440.2 | 0.00 |
| 2026-05-03 12:50 | 72.1 | 11.2 | 15.2 | 14.1 | 246 | 24.3 | 263 | 24.779 | 458.9 | 0.00 |
| 2026-05-03 12:45 | 71.5 | 11.6 | 15.4 | 9.8 | 283 | 21.1 | 253 | 24.780 | 460.8 | 0.00 |
| 2026-05-03 12:40 | 71.7 | 11.4 | 15.3 | 14.3 | 233 | 20.0 | 288 | 24.780 | 434.2 | 0.00 |
| 2026-05-03 12:35 | 72.3 | 11.2 | 15.4 | 16.8 | 236 | 23.3 | 263 | 24.780 | 466.1 | 0.00 |
| 2026-05-03 12:30 | 71.9 | 11.6 | 15.8 | 12.4 | 300 | 22.1 | 313 | 24.781 | 497.8 | 0.00 |
| 2026-05-03 12:25 | 70.5 | 11.7 | 14.8 | 9.2 | 242 | 15.4 | 244 | 24.781 | 446.7 | 0.00 |
| 2026-05-03 12:20 | 70.2 | 13.8 | 18.5 | 5.6 | 80 | 11.1 | 95 | 24.786 | 430.3 | 0.00 |
| 2026-05-03 12:15 | 70.1 | 13.8 | 18.4 | 10.6 | 72 | 13.7 | 72 | 24.785 | 400.6 | 0.00 |
| 2026-05-03 12:10 | 70.0 | 15.1 | 20.3 | 10.7 | 78 | 13.5 | 69 | 24.789 | 375.7 | 0.00 |
| 2026-05-03 12:05 | 70.1 | 14.9 | 20.2 | 6.7 | 83 | 12.4 | 84 | 24.792 | 355.5 | 0.00 |
| 2026-05-03 12:00 | 69.4 | 15.6 | 20.7 | 3.5 | 101 | 6.4 | 123 | 24.796 | 327.5 | 0.00 |
| 2026-05-03 11:55 | 69.1 | 15.9 | 20.9 | 4.1 | 166 | 8.0 | 149 | 24.799 | 299.6 | 0.00 |
| 2026-05-03 11:50 | 69.3 | 16.1 | 21.3 | 5.4 | 166 | 8.3 | 64 | 24.801 | 301.9 | 0.00 |
| 2026-05-03 11:45 | 69.4 | 15.7 | 20.9 | 7.7 | 81 | 12.1 | 358 | 24.805 | 311.2 | 0.00 |
| 2026-05-03 11:40 | 69.8 | 15.0 | 20.1 | 13.5 | 347 | 18.4 | 348 | 24.805 | 311.6 | 0.00 |
| 2026-05-03 11:35 | 69.7 | 15.9 | 21.3 | 8.2 | 11 | 15.3 | 11 | 24.804 | 315.8 | 0.00 |
| 2026-05-03 11:30 | 71.1 | 14.7 | 20.7 | 10.2 | 354 | 16.8 | 350 | 24.804 | 331.4 | 0.00 |
| 2026-05-03 11:25 | 71.5 | 11.6 | 15.4 | 9.5 | 334 | 12.7 | 309 | 24.807 | 340.0 | 0.00 |
| Date Time MST |
Temp °C |
RH % |
DewPt °C |
Wind m/s |
Dir ° |
Gust m/s |
Dir ° |
Press hPa |
Solar W/m^2 |
Prec mm |
|---|---|---|---|---|---|---|---|---|---|---|
| 2026-05-03 13:50 | 22.3 | 12.3 | -8.1 | 3.7 | 40 | 5.7 | 42 | 838.43 | 320.9 | 0.00 |
| 2026-05-03 13:45 | 22.7 | 12.0 | -8.2 | 2.4 | 39 | 4.8 | 46 | 838.45 | 361.7 | 0.00 |
| 2026-05-03 13:40 | 22.3 | 11.8 | -8.7 | 3.0 | 194 | 5.9 | 262 | 838.58 | 415.6 | 0.00 |
| 2026-05-03 13:35 | 22.7 | 11.5 | -8.8 | 4.9 | 252 | 8.6 | 244 | 838.75 | 422.0 | 0.00 |
| 2026-05-03 13:30 | 22.9 | 11.6 | -8.4 | 5.2 | 262 | 7.4 | 268 | 838.74 | 481.4 | 0.00 |
| 2026-05-03 13:25 | 22.4 | 12.1 | -8.3 | 4.9 | 251 | 6.7 | 239 | 838.75 | 462.3 | 0.00 |
| 2026-05-03 13:20 | 22.4 | 11.7 | -8.8 | 5.6 | 235 | 8.0 | 249 | 838.77 | 449.2 | 0.00 |
| 2026-05-03 13:15 | 22.2 | 11.6 | -9.0 | 4.4 | 229 | 6.8 | 277 | 838.86 | 418.5 | 0.00 |
| 2026-05-03 13:10 | 22.4 | 11.2 | -9.3 | 4.2 | 257 | 5.7 | 276 | 838.96 | 395.9 | 0.00 |
| 2026-05-03 13:05 | 22.3 | 11.8 | -8.7 | 4.3 | 266 | 6.9 | 234 | 839.00 | 426.2 | 0.00 |
| 2026-05-03 13:00 | 22.1 | 11.2 | -9.5 | 3.9 | 226 | 6.0 | 240 | 839.05 | 408.7 | 0.00 |
| 2026-05-03 12:55 | 22.1 | 11.4 | -9.3 | 6.1 | 272 | 9.6 | 260 | 839.05 | 440.2 | 0.00 |
| 2026-05-03 12:50 | 22.3 | 11.2 | -9.3 | 6.3 | 246 | 10.9 | 263 | 839.10 | 458.9 | 0.00 |
| 2026-05-03 12:45 | 21.9 | 11.6 | -9.2 | 4.4 | 283 | 9.4 | 253 | 839.15 | 460.8 | 0.00 |
| 2026-05-03 12:40 | 22.0 | 11.4 | -9.3 | 6.4 | 233 | 9.0 | 288 | 839.14 | 434.2 | 0.00 |
| 2026-05-03 12:35 | 22.4 | 11.2 | -9.2 | 7.5 | 236 | 10.4 | 263 | 839.14 | 466.1 | 0.00 |
| 2026-05-03 12:30 | 22.2 | 11.6 | -9.0 | 5.5 | 300 | 9.9 | 313 | 839.18 | 497.8 | 0.00 |
| 2026-05-03 12:25 | 21.4 | 11.7 | -9.5 | 4.1 | 242 | 6.9 | 244 | 839.18 | 446.7 | 0.00 |
| 2026-05-03 12:20 | 21.2 | 13.8 | -7.5 | 2.5 | 80 | 5.0 | 95 | 839.36 | 430.3 | 0.00 |
| 2026-05-03 12:15 | 21.2 | 13.8 | -7.6 | 4.8 | 72 | 6.1 | 72 | 839.30 | 400.6 | 0.00 |
| 2026-05-03 12:10 | 21.1 | 15.1 | -6.5 | 4.8 | 78 | 6.1 | 69 | 839.46 | 375.7 | 0.00 |
| 2026-05-03 12:05 | 21.2 | 14.9 | -6.5 | 3.0 | 83 | 5.5 | 84 | 839.54 | 355.5 | 0.00 |
| 2026-05-03 12:00 | 20.8 | 15.6 | -6.3 | 1.6 | 101 | 2.9 | 123 | 839.70 | 327.5 | 0.00 |
| 2026-05-03 11:55 | 20.6 | 15.9 | -6.2 | 1.8 | 166 | 3.6 | 149 | 839.79 | 299.6 | 0.00 |
| 2026-05-03 11:50 | 20.8 | 16.1 | -5.9 | 2.4 | 166 | 3.7 | 64 | 839.85 | 301.9 | 0.00 |
| 2026-05-03 11:45 | 20.8 | 15.7 | -6.2 | 3.5 | 81 | 5.4 | 358 | 839.99 | 311.2 | 0.00 |
| 2026-05-03 11:40 | 21.0 | 15.0 | -6.6 | 6.0 | 347 | 8.2 | 348 | 840.01 | 311.6 | 0.00 |
| 2026-05-03 11:35 | 21.0 | 15.9 | -5.9 | 3.7 | 11 | 6.8 | 11 | 839.97 | 315.8 | 0.00 |
| 2026-05-03 11:30 | 21.7 | 14.7 | -6.3 | 4.6 | 354 | 7.5 | 350 | 839.98 | 331.4 | 0.00 |
| 2026-05-03 11:25 | 22.0 | 11.6 | -9.2 | 4.2 | 334 | 5.7 | 309 | 840.05 | 340.0 | 0.00 |